sensor_id;sensor_type;location;lat;lon;timestamp;pressure;altitude;pressure_sealevel;temperature;humidity
54172;BME280;40076;52.354;4.970;2023-01-25T00:02:06;103858.38;;;2.59;100.00
54172;BME280;40076;52.354;4.970;2023-01-25T00:04:32;103848.69;;;2.58;100.00
54172;BME280;40076;52.354;4.970;2023-01-25T00:06:57;103846.22;;;2.57;100.00
54172;BME280;40076;52.354;4.970;2023-01-25T00:09:24;103844.38;;;2.57;100.00
54172;BME280;40076;52.354;4.970;2023-01-25T00:11:50;103834.47;;;2.51;100.00
54172;BME280;40076;52.354;4.970;2023-01-25T00:14:17;103841.00;;;2.49;100.00
54172;BME280;40076;52.354;4.970;2023-01-25T00:16:43;103837.69;;;2.47;100.00
54172;BME280;40076;52.354;4.970;2023-01-25T00:19:11;103826.59;;;2.43;100.00
54172;BME280;40076;52.354;4.970;2023-01-25T00:21:37;103838.47;;;2.41;100.00
54172;BME280;40076;52.354;4.970;2023-01-25T00:24:03;103833.72;;;2.36;100.00
54172;BME280;40076;52.354;4.970;2023-01-25T00:26:30;103828.56;;;2.35;100.00
54172;BME280;40076;52.354;4.970;2023-01-25T00:28:56;103827.72;;;2.34;100.00
54172;BME280;40076;52.354;4.970;2023-01-25T00:34:49;103826.91;;;2.33;100.00
54172;BME280;40076;52.354;4.970;2023-01-25T00:36:56;103830.22;;;2.36;100.00
54172;BME280;40076;52.354;4.970;2023-01-25T00:39:24;103830.81;;;2.38;100.00
54172;BME280;40076;52.354;4.970;2023-01-25T00:41:50;103830.63;;;2.39;100.00
54172;BME280;40076;52.354;4.970;2023-01-25T00:44:15;103824.28;;;2.40;100.00
54172;BME280;40076;52.354;4.970;2023-01-25T00:46:41;103827.59;;;2.42;100.00
54172;BME280;40076;52.354;4.970;2023-01-25T00:49:18;103829.44;;;2.42;100.00
54172;BME280;40076;52.354;4.970;2023-01-25T00:51:47;103824.94;;;2.42;100.00
54172;BME280;40076;52.354;4.970;2023-01-25T00:54:12;103819.97;;;2.39;100.00
54172;BME280;40076;52.354;4.970;2023-01-25T00:56:40;103819.78;;;2.41;100.00
54172;BME280;40076;52.354;4.970;2023-01-25T00:59:06;103813.63;;;2.40;100.00
54172;BME280;40076;52.354;4.970;2023-01-25T01:01:33;103811.97;;;2.39;100.00
54172;BME280;40076;52.354;4.970;2023-01-25T01:03:58;103803.31;;;2.37;100.00
54172;BME280;40076;52.354;4.970;2023-01-25T01:06:24;103802.47;;;2.37;100.00
54172;BME280;40076;52.354;4.970;2023-01-25T01:08:49;103805.97;;;2.37;100.00
54172;BME280;40076;52.354;4.970;2023-01-25T01:11:14;103800.84;;;2.36;100.00
54172;BME280;40076;52.354;4.970;2023-01-25T01:13:43;103803.53;;;2.36;100.00
54172;BME280;40076;52.354;4.970;2023-01-25T01:16:10;103802.88;;;2.33;100.00
54172;BME280;40076;52.354;4.970;2023-01-25T01:18:45;103801.22;;;2.32;100.00
54172;BME280;40076;52.354;4.970;2023-01-25T01:21:12;103804.91;;;2.31;100.00
54172;BME280;40076;52.354;4.970;2023-01-25T01:23:38;103800.59;;;2.30;100.00
54172;BME280;40076;52.354;4.970;2023-01-25T01:26:13;103794.41;;;2.30;100.00
54172;BME280;40076;52.354;4.970;2023-01-25T01:28:42;103800.59;;;2.30;100.00
54172;BME280;40076;52.354;4.970;2023-01-25T01:31:13;103800.59;;;2.30;100.00
54172;BME280;40076;52.354;4.970;2023-01-25T01:33:39;103793.81;;;2.28;100.00
54172;BME280;40076;52.354;4.970;2023-01-25T01:36:08;103791.97;;;2.28;100.00
54172;BME280;40076;52.354;4.970;2023-01-25T01:38:34;103784.34;;;2.25;100.00
54172;BME280;40076;52.354;4.970;2023-01-25T01:40:59;103791.31;;;2.26;100.00
54172;BME280;40076;52.354;4.970;2023-01-25T01:43:25;103786.34;;;2.23;100.00
54172;BME280;40076;52.354;4.970;2023-01-25T01:45:54;103791.69;;;2.23;100.00
54172;BME280;40076;52.354;4.970;2023-01-25T01:48:31;103788.19;;;2.23;100.00
54172;BME280;40076;52.354;4.970;2023-01-25T01:51:51;103792.53;;;2.24;100.00
54172;BME280;40076;52.354;4.970;2023-01-25T01:54:42;103796.19;;;2.23;100.00
54172;BME280;40076;52.354;4.970;2023-01-25T01:57:08;103799.06;;;2.21;100.00
54172;BME280;40076;52.354;4.970;2023-01-25T02:02:19;103790.63;;;2.18;100.00
54172;BME280;40076;52.354;4.970;2023-01-25T02:04:47;103790.63;;;2.18;100.00
54172;BME280;40076;52.354;4.970;2023-01-25T02:07:20;103786.94;;;2.19;100.00
54172;BME280;40076;52.354;4.970;2023-01-25T02:09:49;103785.28;;;2.18;100.00
54172;BME280;40076;52.354;4.970;2023-01-25T02:12:16;103786.13;;;2.18;100.00
54172;BME280;40076;52.354;4.970;2023-01-25T02:14:48;103778.94;;;2.19;100.00
54172;BME280;40076;52.354;4.970;2023-01-25T02:17:14;103785.72;;;2.21;100.00
54172;BME280;40076;52.354;4.970;2023-01-25T02:19:44;103776.91;;;2.21;100.00
54172;BME280;40076;52.354;4.970;2023-01-25T02:22:15;103769.94;;;2.20;100.00
54172;BME280;40076;52.354;4.970;2023-01-25T02:27:19;103771.75;;;2.19;100.00
54172;BME280;40076;52.354;4.970;2023-01-25T02:29:45;103770.09;;;2.18;100.00
54172;BME280;40076;52.354;4.970;2023-01-25T02:32:12;103770.75;;;2.20;100.00
54172;BME280;40076;52.354;4.970;2023-01-25T02:34:40;103764.38;;;2.21;100.00
54172;BME280;40076;52.354;4.970;2023-01-25T02:37:09;103761.91;;;2.20;100.00
54172;BME280;40076;52.354;4.970;2023-01-25T02:39:37;103754.94;;;2.19;100.00
54172;BME280;40076;52.354;4.970;2023-01-25T02:42:04;103749.78;;;2.17;100.00
54172;BME280;40076;52.354;4.970;2023-01-25T02:44:31;103748.94;;;2.17;100.00
54172;BME280;40076;52.354;4.970;2023-01-25T02:46:56;103744.19;;;2.12;100.00
54172;BME280;40076;52.354;4.970;2023-01-25T02:49:22;103744.19;;;2.12;100.00
54172;BME280;40076;52.354;4.970;2023-01-25T02:51:51;103746.22;;;2.10;100.00
54172;BME280;40076;52.354;4.970;2023-01-25T02:54:20;103735.97;;;2.14;100.00
54172;BME280;40076;52.354;4.970;2023-01-25T02:56:46;103733.13;;;2.15;100.00
54172;BME280;40076;52.354;4.970;2023-01-25T02:59:11;103728.63;;;2.16;100.00
54172;BME280;40076;52.354;4.970;2023-01-25T03:01:41;103731.09;;;2.17;100.00
54172;BME280;40076;52.354;4.970;2023-01-25T03:04:07;103727.19;;;2.13;100.00
54172;BME280;40076;52.354;4.970;2023-01-25T03:06:34;103728.38;;;2.11;100.00
54172;BME280;40076;52.354;4.970;2023-01-25T03:09:01;103726.72;;;2.10;100.00
54172;BME280;40076;52.354;4.970;2023-01-25T03:11:26;103723.25;;;2.09;100.00
54172;BME280;40076;52.354;4.970;2023-01-25T03:13:51;103736.75;;;2.08;100.00
54172;BME280;40076;52.354;4.970;2023-01-25T03:16:17;103728.75;;;2.08;100.00
54172;BME280;40076;52.354;4.970;2023-01-25T03:18:42;103718.28;;;2.06;100.00
54172;BME280;40076;52.354;4.970;2023-01-25T03:21:12;103724.44;;;2.07;100.00
54172;BME280;40076;52.354;4.970;2023-01-25T03:23:41;103720.16;;;2.06;100.00
54172;BME280;40076;52.354;4.970;2023-01-25T03:26:12;103726.28;;;2.06;100.00
54172;BME280;40076;52.354;4.970;2023-01-25T03:28:42;103715.59;;;2.06;100.00
54172;BME280;40076;52.354;4.970;2023-01-25T03:31:10;103711.31;;;2.05;100.00
54172;BME280;40076;52.354;4.970;2023-01-25T03:33:36;103711.31;;;2.05;100.00
54172;BME280;40076;52.354;4.970;2023-01-25T03:36:02;103715.81;;;2.05;100.00
54172;BME280;40076;52.354;4.970;2023-01-25T03:38:28;103710.28;;;2.06;100.00
54172;BME280;40076;52.354;4.970;2023-01-25T03:40:53;103712.31;;;2.04;100.00
54172;BME280;40076;52.354;4.970;2023-01-25T03:43:19;103703.69;;;2.02;100.00
54172;BME280;40076;52.354;4.970;2023-01-25T03:45:45;103703.69;;;2.02;100.00
54172;BME280;40076;52.354;4.970;2023-01-25T03:48:15;103695.03;;;2.00;100.00
54172;BME280;40076;52.354;4.970;2023-01-25T03:50:40;103697.53;;;2.02;100.00
54172;BME280;40076;52.354;4.970;2023-01-25T03:53:06;103690.34;;;2.02;100.00
54172;BME280;40076;52.354;4.970;2023-01-25T03:55:41;103689.16;;;2.05;100.00
54172;BME280;40076;52.354;4.970;2023-01-25T03:58:07;103689.34;;;2.03;100.00
54172;BME280;40076;52.354;4.970;2023-01-25T04:00:33;103696.31;;;2.04;100.00
54172;BME280;40076;52.354;4.970;2023-01-25T04:03:01;103691.34;;;2.01;100.00
54172;BME280;40076;52.354;4.970;2023-01-25T04:05:26;103691.53;;;2.00;100.00
54172;BME280;40076;52.354;4.970;2023-01-25T04:07:52;103681.28;;;1.97;100.00
54172;BME280;40076;52.354;4.970;2023-01-25T04:10:17;103681.84;;;1.92;100.00
54172;BME280;40076;52.354;4.970;2023-01-25T04:12:42;103677.09;;;1.87;100.00
54172;BME280;40076;52.354;4.970;2023-01-25T04:15:11;103677.69;;;1.83;100.00
54172;BME280;40076;52.354;4.970;2023-01-25T04:17:36;103675.19;;;1.81;100.00
54172;BME280;40076;52.354;4.970;2023-01-25T04:20:01;103673.53;;;1.80;100.00
54172;BME280;40076;52.354;4.970;2023-01-25T04:22:27;103670.69;;;1.82;100.00
54172;BME280;40076;52.354;4.970;2023-01-25T04:24:52;103670.47;;;1.83;100.00
54172;BME280;40076;52.354;4.970;2023-01-25T04:27:18;103671.53;;;1.82;100.00
54172;BME280;40076;52.354;4.970;2023-01-25T04:29:44;103668.84;;;1.82;100.00
54172;BME280;40076;52.354;4.970;2023-01-25T04:32:09;103667.81;;;1.83;100.00
54172;BME280;40076;52.354;4.970;2023-01-25T04:34:34;103667.81;;;1.83;100.00
54172;BME280;40076;52.354;4.970;2023-01-25T04:37:00;103660.84;;;1.82;100.00
54172;BME280;40076;52.354;4.970;2023-01-25T04:39:25;103657.97;;;1.84;100.00
54172;BME280;40076;52.354;4.970;2023-01-25T04:41:51;103656.97;;;1.85;100.00
54172;BME280;40076;52.354;4.970;2023-01-25T04:44:16;103657.34;;;1.82;100.00
54172;BME280;40076;52.354;4.970;2023-01-25T04:46:41;103653.88;;;1.81;100.00
54172;BME280;40076;52.354;4.970;2023-01-25T04:49:07;103653.88;;;1.81;100.00
54172;BME280;40076;52.354;4.970;2023-01-25T04:51:35;103660.03;;;1.82;100.00
54172;BME280;40076;52.354;4.970;2023-01-25T04:54:03;103650.38;;;1.81;100.00
54172;BME280;40076;52.354;4.970;2023-01-25T04:56:28;103654.06;;;1.80;100.00
54172;BME280;40076;52.354;4.970;2023-01-25T04:58:54;103648.53;;;1.81;100.00
54172;BME280;40076;52.354;4.970;2023-01-25T05:01:19;103647.06;;;1.79;100.00
54172;BME280;40076;52.354;4.970;2023-01-25T05:03:44;103643.75;;;1.77;100.00
54172;BME280;40076;52.354;4.970;2023-01-25T05:06:10;103648.66;;;1.73;100.00
54172;BME280;40076;52.354;4.970;2023-01-25T05:08:35;103648.19;;;1.70;100.00
54172;BME280;40076;52.354;4.970;2023-01-25T05:11:00;103647.59;;;1.68;100.00
54172;BME280;40076;52.354;4.970;2023-01-25T05:13:26;103643.28;;;1.67;100.00
54172;BME280;40076;52.354;4.970;2023-01-25T05:15:55;103641.63;;;1.66;100.00
54172;BME280;40076;52.354;4.970;2023-01-25T05:18:20;103642.63;;;1.65;100.00
54172;BME280;40076;52.354;4.970;2023-01-25T05:20:45;103648.97;;;1.64;100.00
54172;BME280;40076;52.354;4.970;2023-01-25T05:23:11;103651.81;;;1.62;100.00
54172;BME280;40076;52.354;4.970;2023-01-25T05:25:36;103648.53;;;1.60;100.00
54172;BME280;40076;52.354;4.970;2023-01-25T05:28:23;103642.94;;;1.55;100.00
54172;BME280;40076;52.354;4.970;2023-01-25T05:30:49;103647.63;;;1.53;100.00
54172;BME280;40076;52.354;4.970;2023-01-25T05:33:14;103653.34;;;1.50;100.00
54172;BME280;40076;52.354;4.970;2023-01-25T05:35:42;103657.84;;;1.49;100.00
54172;BME280;40076;52.354;4.970;2023-01-25T05:38:08;103653.53;;;1.48;100.00
54172;BME280;40076;52.354;4.970;2023-01-25T05:40:33;103657.03;;;1.49;100.00
54172;BME280;40076;52.354;4.970;2023-01-25T05:42:59;103661.34;;;1.50;100.00
54172;BME280;40076;52.354;4.970;2023-01-25T05:45:25;103650.03;;;1.48;100.00
54172;BME280;40076;52.354;4.970;2023-01-25T05:47:55;103656.56;;;1.45;100.00
54172;BME280;40076;52.354;4.970;2023-01-25T05:50:22;103651.44;;;1.44;100.00
54172;BME280;40076;52.354;4.970;2023-01-25T05:52:48;103652.81;;;1.40;100.00
54172;BME280;40076;52.354;4.970;2023-01-25T05:55:13;103654.03;;;1.37;100.00
54172;BME280;40076;52.354;4.970;2023-01-25T05:57:39;103656.06;;;1.35;100.00
54172;BME280;40076;52.354;4.970;2023-01-25T06:00:05;103651.75;;;1.34;100.00
54172;BME280;40076;52.354;4.970;2023-01-25T06:02:31;103653.59;;;1.34;100.00
54172;BME280;40076;52.354;4.970;2023-01-25T06:04:57;103658.72;;;1.35;100.00
54172;BME280;40076;52.354;4.970;2023-01-25T06:07:23;103657.06;;;1.34;100.00
54172;BME280;40076;52.354;4.970;2023-01-25T06:09:49;103644.59;;;1.35;100.00
54172;BME280;40076;52.354;4.970;2023-01-25T06:12:14;103653.41;;;1.35;100.00
54172;BME280;40076;52.354;4.970;2023-01-25T06:14:43;103651.75;;;1.34;100.00
54172;BME280;40076;52.354;4.970;2023-01-25T06:17:23;103656.88;;;1.36;100.00
54172;BME280;40076;52.354;4.970;2023-01-25T06:19:49;103648.91;;;1.36;100.00
54172;BME280;40076;52.354;4.970;2023-01-25T06:22:15;103658.34;;;1.38;100.00
54172;BME280;40076;52.354;4.970;2023-01-25T06:24:40;103657.50;;;1.38;100.00
54172;BME280;40076;52.354;4.970;2023-01-25T06:27:06;103657.31;;;1.39;100.00
54172;BME280;40076;52.354;4.970;2023-01-25T06:29:34;103643.19;;;1.39;100.00
54172;BME280;40076;52.354;4.970;2023-01-25T06:32:12;103652.00;;;1.39;100.00
54172;BME280;40076;52.354;4.970;2023-01-25T06:34:41;103652.19;;;1.38;100.00
54172;BME280;40076;52.354;4.970;2023-01-25T06:37:06;103657.50;;;1.38;100.00
54172;BME280;40076;52.354;4.970;2023-01-25T06:39:32;103658.53;;;1.37;100.00
54172;BME280;40076;52.354;4.970;2023-01-25T06:41:57;103654.22;;;1.36;100.00
54172;BME280;40076;52.354;4.970;2023-01-25T06:44:22;103659.56;;;1.36;100.00
54172;BME280;40076;52.354;4.970;2023-01-25T06:46:57;103649.72;;;1.36;100.00
54172;BME280;40076;52.354;4.970;2023-01-25T06:49:25;103644.19;;;1.38;100.00
54172;BME280;40076;52.354;4.970;2023-01-25T06:51:50;103641.53;;;1.38;100.00
54172;BME280;40076;52.354;4.970;2023-01-25T06:54:16;103640.72;;;1.37;100.00
54172;BME280;40076;52.354;4.970;2023-01-25T06:56:41;103641.53;;;1.38;100.00
54172;BME280;40076;52.354;4.970;2023-01-25T06:59:07;103627.59;;;1.36;100.00
54172;BME280;40076;52.354;4.970;2023-01-25T07:01:32;103626.75;;;1.35;100.00
54172;BME280;40076;52.354;4.970;2023-01-25T07:03:58;103627.78;;;1.34;100.00
54172;BME280;40076;52.354;4.970;2023-01-25T07:06:25;103632.28;;;1.34;100.00
54172;BME280;40076;52.354;4.970;2023-01-25T07:08:51;103637.78;;;1.32;100.00
54172;BME280;40076;52.354;4.970;2023-01-25T07:11:17;103639.44;;;1.33;100.00
54172;BME280;40076;52.354;4.970;2023-01-25T07:13:46;103628.13;;;1.31;100.00
54172;BME280;40076;52.354;4.970;2023-01-25T07:16:17;103636.13;;;1.31;100.00
54172;BME280;40076;52.354;4.970;2023-01-25T07:18:44;103636.97;;;1.32;100.00
54172;BME280;40076;52.354;4.970;2023-01-25T07:21:14;103632.84;;;1.29;100.00
54172;BME280;40076;52.354;4.970;2023-01-25T07:23:43;103636.53;;;1.28;100.00
54172;BME280;40076;52.354;4.970;2023-01-25T07:26:16;103630.56;;;1.26;100.00
54172;BME280;40076;52.354;4.970;2023-01-25T07:28:42;103630.91;;;1.23;100.00
54172;BME280;40076;52.354;4.970;2023-01-25T07:31:08;103625.97;;;1.20;100.00
54172;BME280;40076;52.354;4.970;2023-01-25T07:33:34;103623.50;;;1.19;100.00
54172;BME280;40076;52.354;4.970;2023-01-25T07:36:04;103632.50;;;1.17;100.00
54172;BME280;40076;52.354;4.970;2023-01-25T07:38:30;103623.03;;;1.15;100.00
54172;BME280;40076;52.354;4.970;2023-01-25T07:40:55;103615.25;;;1.13;100.00
54172;BME280;40076;52.354;4.970;2023-01-25T07:43:24;103615.25;;;1.13;100.00
54172;BME280;40076;52.354;4.970;2023-01-25T07:45:50;103612.59;;;1.13;100.00
54172;BME280;40076;52.354;4.970;2023-01-25T07:48:17;103614.22;;;1.14;100.00
54172;BME280;40076;52.354;4.970;2023-01-25T07:50:43;103601.72;;;1.15;100.00
54172;BME280;40076;52.354;4.970;2023-01-25T07:53:15;103587.22;;;1.17;100.00
54172;BME280;40076;52.354;4.970;2023-01-25T07:55:43;103598.06;;;1.16;100.00
54172;BME280;40076;52.354;4.970;2023-01-25T07:58:13;103599.06;;;1.15;100.00
54172;BME280;40076;52.354;4.970;2023-01-25T08:00:38;103604.41;;;1.15;100.00
54172;BME280;40076;52.354;4.970;2023-01-25T08:03:06;103599.47;;;1.12;100.00
54172;BME280;40076;52.354;4.970;2023-01-25T08:05:34;103605.78;;;1.11;100.00
54172;BME280;40076;52.354;4.970;2023-01-25T08:08:00;103606.16;;;1.08;100.00
54172;BME280;40076;52.354;4.970;2023-01-25T08:10:25;103606.56;;;1.05;100.00
54172;BME280;40076;52.354;4.970;2023-01-25T08:12:50;103605.72;;;1.04;100.00
54172;BME280;40076;52.354;4.970;2023-01-25T08:15:16;103607.75;;;1.02;100.00
54172;BME280;40076;52.354;4.970;2023-01-25T08:17:41;103614.91;;;1.02;100.00
54172;BME280;40076;52.354;4.970;2023-01-25T08:20:09;103615.91;;;1.01;100.00
54172;BME280;40076;52.354;4.970;2023-01-25T08:22:38;103609.56;;;1.02;100.00
54172;BME280;40076;52.354;4.970;2023-01-25T08:25:06;103607.75;;;1.02;100.00
54172;BME280;40076;52.354;4.970;2023-01-25T08:27:31;103605.91;;;1.03;100.00
54172;BME280;40076;52.354;4.970;2023-01-25T08:29:57;103604.91;;;1.04;100.00
54172;BME280;40076;52.354;4.970;2023-01-25T08:32:22;103598.56;;;1.05;100.00
54172;BME280;40076;52.354;4.970;2023-01-25T08:34:48;103603.88;;;1.05;100.00
54172;BME280;40076;52.354;4.970;2023-01-25T08:37:13;103592.22;;;1.06;100.00
54172;BME280;40076;52.354;4.970;2023-01-25T08:39:38;103593.84;;;1.07;100.00
54172;BME280;40076;52.354;4.970;2023-01-25T08:42:04;103586.06;;;1.05;100.00
54172;BME280;40076;52.354;4.970;2023-01-25T08:44:30;103583.41;;;1.05;100.00
54172;BME280;40076;52.354;4.970;2023-01-25T08:46:55;103577.44;;;1.03;100.00
54172;BME280;40076;52.354;4.970;2023-01-25T08:49:21;103586.25;;;1.04;100.00
54172;BME280;40076;52.354;4.970;2023-01-25T08:51:46;103577.44;;;1.03;100.00
54172;BME280;40076;52.354;4.970;2023-01-25T08:54:12;103587.28;;;1.03;100.00
54172;BME280;40076;52.354;4.970;2023-01-25T08:56:39;103582.78;;;1.03;100.00
54172;BME280;40076;52.354;4.970;2023-01-25T08:59:05;103586.06;;;1.05;100.00
54172;BME280;40076;52.354;4.970;2023-01-25T09:01:30;103580.75;;;1.05;100.00
54172;BME280;40076;52.354;4.970;2023-01-25T09:03:55;103582.19;;;1.08;100.00
54172;BME280;40076;52.354;4.970;2023-01-25T09:06:21;103571.34;;;1.09;100.00
54172;BME280;40076;52.354;4.970;2023-01-25T09:08:46;103557.03;;;1.10;100.00
54172;BME280;40076;52.354;4.970;2023-01-25T09:11:17;103559.06;;;1.08;100.00
54172;BME280;40076;52.354;4.970;2023-01-25T09:13:43;103563.38;;;1.09;100.00
54172;BME280;40076;52.354;4.970;2023-01-25T09:16:14;103566.63;;;1.05;100.00
54172;BME280;40076;52.354;4.970;2023-01-25T09:18:44;103560.28;;;1.06;100.00
54172;BME280;40076;52.354;4.970;2023-01-25T09:21:16;103563.94;;;1.05;100.00
54172;BME280;40076;52.354;4.970;2023-01-25T09:23:42;103563.94;;;1.05;100.00
54172;BME280;40076;52.354;4.970;2023-01-25T09:26:09;103555.50;;;1.01;100.00
54172;BME280;40076;52.354;4.970;2023-01-25T09:28:34;103558.34;;;1.00;100.00
54172;BME280;40076;52.354;4.970;2023-01-25T09:31:05;103546.06;;;0.99;100.00
54172;BME280;40076;52.354;4.970;2023-01-25T09:33:33;103540.28;;;0.95;100.00
54172;BME280;40076;52.354;4.970;2023-01-25T09:35:59;103544.78;;;0.95;100.00
54172;BME280;40076;52.354;4.970;2023-01-25T09:38:25;103550.94;;;0.95;100.00
54172;BME280;40076;52.354;4.970;2023-01-25T09:41:01;103542.94;;;0.95;100.00
54172;BME280;40076;52.354;4.970;2023-01-25T09:49:12;103542.47;;;0.92;100.00
54172;BME280;40076;52.354;4.970;2023-01-25T09:51:58;103532.31;;;0.95;100.00
54172;BME280;40076;52.354;4.970;2023-01-25T09:54:27;103531.09;;;0.98;100.00
54172;BME280;40076;52.354;4.970;2023-01-25T09:56:53;103524.50;;;0.94;100.00
54172;BME280;40076;52.354;4.970;2023-01-25T09:59:22;103513.03;;;0.93;100.00
54172;BME280;40076;52.354;4.970;2023-01-25T10:02:00;103512.84;;;0.95;100.00
54172;BME280;40076;52.354;4.970;2023-01-25T10:04:36;103498.69;;;0.94;100.00
54172;BME280;40076;52.354;4.970;2023-01-25T10:09:48;103495.84;;;0.96;100.00
54172;BME280;40076;52.354;4.970;2023-01-25T10:12:24;103492.19;;;0.97;100.00
54172;BME280;40076;52.354;4.970;2023-01-25T10:14:53;103492.81;;;0.99;100.00
54172;BME280;40076;52.354;4.970;2023-01-25T10:20:06;103488.13;;;1.01;100.00
54172;BME280;40076;52.354;4.970;2023-01-25T10:22:48;103487.75;;;1.04;100.00
54172;BME280;40076;52.354;4.970;2023-01-25T10:25:45;103481.22;;;1.06;100.00
54172;BME280;40076;52.354;4.970;2023-01-25T10:31:03;103475.50;;;1.09;100.00
54172;BME280;40076;52.354;4.970;2023-01-25T10:33:32;103474.31;;;1.12;100.00
54172;BME280;40076;52.354;4.970;2023-01-25T10:36:04;103469.63;;;1.14;100.00
54172;BME280;40076;52.354;4.970;2023-01-25T10:38:43;103464.91;;;1.16;100.00
54172;BME280;40076;52.354;4.970;2023-01-25T10:41:19;103460.22;;;1.18;100.00
54172;BME280;40076;52.354;4.970;2023-01-25T10:43:45;103457.38;;;1.20;100.00
54172;BME280;40076;52.354;4.970;2023-01-25T10:46:29;103450.63;;;1.24;100.00
54172;BME280;40076;52.354;4.970;2023-01-25T10:48:55;103439.16;;;1.23;100.00
54172;BME280;40076;52.354;4.970;2023-01-25T10:51:32;103440.78;;;1.24;100.00
54172;BME280;40076;52.354;4.970;2023-01-25T10:54:04;103429.13;;;1.25;100.00
54172;BME280;40076;52.354;4.970;2023-01-25T10:56:32;103425.44;;;1.26;100.00
54172;BME280;40076;52.354;4.970;2023-01-25T10:59:21;103424.44;;;1.27;100.00
54172;BME280;40076;52.354;4.970;2023-01-25T11:01:48;103417.91;;;1.30;100.00
54172;BME280;40076;52.354;4.970;2023-01-25T11:06:54;103412.38;;;1.31;100.00
54172;BME280;40076;52.354;4.970;2023-01-25T11:11:53;103413.84;;;1.34;100.00
54172;BME280;40076;52.354;4.970;2023-01-25T11:14:22;103412.63;;;1.36;100.00
54172;BME280;40076;52.354;4.970;2023-01-25T11:16:48;103406.47;;;1.36;100.00
54172;BME280;40076;52.354;4.970;2023-01-25T11:21:56;103398.47;;;1.36;100.00
54172;BME280;40076;52.354;4.970;2023-01-25T11:24:27;103391.31;;;1.36;100.00
54172;BME280;40076;52.354;4.970;2023-01-25T11:27:28;103378.00;;;1.36;100.00
54172;BME280;40076;52.354;4.970;2023-01-25T11:30:16;103362.84;;;1.37;100.00
54172;BME280;40076;52.354;4.970;2023-01-25T11:32:43;103350.53;;;1.36;100.00
54172;BME280;40076;52.354;4.970;2023-01-25T11:35:24;103343.38;;;1.36;100.00
54172;BME280;40076;52.354;4.970;2023-01-25T11:43:16;103329.03;;;1.37;100.00
54172;BME280;40076;52.354;4.970;2023-01-25T11:49:03;103306.91;;;1.37;100.00
54172;BME280;40076;52.354;4.970;2023-01-25T11:52:00;103299.72;;;1.37;100.00
54172;BME280;40076;52.354;4.970;2023-01-25T11:54:43;103300.13;;;1.34;100.00
54172;BME280;40076;52.354;4.970;2023-01-25T11:57:33;103292.13;;;1.34;100.00
54172;BME280;40076;52.354;4.970;2023-01-25T12:00:16;103274.31;;;1.35;100.00
54172;BME280;40076;52.354;4.970;2023-01-25T12:05:49;103268.75;;;1.30;100.00
54172;BME280;40076;52.354;4.970;2023-01-25T12:08:25;103264.00;;;1.25;100.00
54172;BME280;40076;52.354;4.970;2023-01-25T12:14:10;103241.88;;;1.25;100.00
54172;BME280;40076;52.354;4.970;2023-01-25T12:17:21;103232.66;;;1.21;100.00
54172;BME280;40076;52.354;4.970;2023-01-25T12:25:41;103215.81;;;1.13;100.00
54172;BME280;40076;52.354;4.970;2023-01-25T12:28:13;103216.63;;;1.14;100.00
54172;BME280;40076;52.354;4.970;2023-01-25T12:33:28;103204.13;;;1.14;100.00
54172;BME280;40076;52.354;4.970;2023-01-25T12:36:10;103204.56;;;1.18;100.00
54172;BME280;40076;52.354;4.970;2023-01-25T12:38:57;103208.69;;;1.21;100.00
54172;BME280;40076;52.354;4.970;2023-01-25T12:41:38;103188.38;;;1.20;100.00
54172;BME280;40076;52.354;4.970;2023-01-25T12:44:24;103195.34;;;1.21;100.00
54172;BME280;40076;52.354;4.970;2023-01-25T12:47:01;103185.53;;;1.21;100.00
54172;BME280;40076;52.354;4.970;2023-01-25T12:49:41;103183.06;;;1.20;100.00
54172;BME280;40076;52.354;4.970;2023-01-25T12:55:00;103168.50;;;1.22;100.00
54172;BME280;40076;52.354;4.970;2023-01-25T13:10:47;103162.97;;;1.17;100.00
54172;BME280;40076;52.354;4.970;2023-01-25T13:13:23;103153.53;;;1.14;100.00
54172;BME280;40076;52.354;4.970;2023-01-25T13:15:50;103153.34;;;1.16;100.00
54172;BME280;40076;52.354;4.970;2023-01-25T13:20:50;103140.00;;;1.16;100.00
54172;BME280;40076;52.354;4.970;2023-01-25T13:28:54;103125.28;;;1.20;100.00
54172;BME280;40076;52.354;4.970;2023-01-25T13:34:03;103122.63;;;1.20;100.00
54172;BME280;40076;52.354;4.970;2023-01-25T13:39:39;103104.59;;;1.22;100.00
54172;BME280;40076;52.354;4.970;2023-01-25T13:44:42;103110.53;;;1.24;100.00
54172;BME280;40076;52.354;4.970;2023-01-25T13:47:13;103105.03;;;1.26;100.00
54172;BME280;40076;52.354;4.970;2023-01-25T13:52:24;103100.53;;;1.26;100.00
54172;BME280;40076;52.354;4.970;2023-01-25T13:54:53;103091.72;;;1.26;100.00
54172;BME280;40076;52.354;4.970;2023-01-25T13:57:24;103102.16;;;1.27;100.00
54172;BME280;40076;52.354;4.970;2023-01-25T14:00:12;103107.50;;;1.27;100.00
54172;BME280;40076;52.354;4.970;2023-01-25T14:02:43;103099.31;;;1.29;100.00
54172;BME280;40076;52.354;4.970;2023-01-25T14:05:20;103099.91;;;1.31;100.00
54172;BME280;40076;52.354;4.970;2023-01-25T14:07:48;103097.88;;;1.33;100.00
54172;BME280;40076;52.354;4.970;2023-01-25T14:10:19;103094.19;;;1.34;100.00
54172;BME280;40076;52.354;4.970;2023-01-25T14:12:48;103093.38;;;1.33;100.00
54172;BME280;40076;52.354;4.970;2023-01-25T14:18:17;103091.13;;;1.37;100.00
54172;BME280;40076;52.354;4.970;2023-01-25T14:20:45;103094.00;;;1.35;100.00
54172;BME280;40076;52.354;4.970;2023-01-25T14:23:29;103094.81;;;1.36;100.00
54172;BME280;40076;52.354;4.970;2023-01-25T14:25:57;103092.97;;;1.36;100.00
54172;BME280;40076;52.354;4.970;2023-01-25T14:28:24;103092.97;;;1.36;100.00
54172;BME280;40076;52.354;4.970;2023-01-25T14:30:55;103089.47;;;1.36;100.00
54172;BME280;40076;52.354;4.970;2023-01-25T14:33:39;103086.19;;;1.34;100.00